createdAt,value
2022-11-16T00:01:42.826Z,99043.94
2022-11-16T00:04:12.958Z,99050.09
2022-11-16T00:06:41.028Z,99051.94
2022-11-16T00:09:26.917Z,99044.91
2022-11-16T00:11:56.627Z,99047.59
2022-11-16T00:14:27.189Z,99041.44
2022-11-16T00:16:55.180Z,99044.91
2022-11-16T00:19:23.590Z,99042.44
2022-11-16T00:21:51.442Z,99047.59
2022-11-16T00:24:22.027Z,99037.13
2022-11-16T00:26:50.814Z,99037.25
2022-11-16T00:29:20.442Z,99024.94
2022-11-16T00:31:48.613Z,99018.94
2022-11-16T00:34:16.833Z,99020.75
2022-11-16T00:36:44.973Z,99012.94
2022-11-16T00:39:13.444Z,99010.94
2022-11-16T00:41:42.848Z,99012.78
2022-11-16T00:44:11.174Z,99011.13
2022-11-16T00:46:38.898Z,99012.09
2022-11-16T00:49:07.083Z,99006.78
2022-11-16T00:51:35.551Z,99004.94
2022-11-16T00:54:03.914Z,99007.63
2022-11-16T00:56:31.811Z,99005.81
2022-11-16T00:59:01.005Z,99003.16
2022-11-16T01:01:28.719Z,99008.28
2022-11-16T01:03:56.619Z,99006.63
2022-11-16T01:06:24.447Z,98992.34
2022-11-16T01:08:52.477Z,99002.16
2022-11-16T01:11:38.185Z,98993.34
2022-11-16T01:14:09.832Z,98988.84
2022-11-16T01:16:37.681Z,98991.50
2022-11-16T01:19:05.966Z,98992.34
2022-11-16T01:21:34.237Z,98993.00
2022-11-16T01:24:02.264Z,98999.19
2022-11-16T01:26:30.110Z,98997.22
2022-11-16T01:28:59.203Z,98997.03
2022-11-16T01:31:28.327Z,98989.91
2022-11-16T01:33:56.059Z,98989.06
2022-11-16T01:36:23.854Z,98995.22
2022-11-16T01:38:51.698Z,98991.72
2022-11-16T01:41:22.940Z,98992.41
2022-11-16T01:43:56.966Z,98996.75
2022-11-16T01:46:25.655Z,98987.25
2022-11-16T01:48:59.862Z,98991.56
2022-11-16T01:51:28.200Z,98990.75
2022-11-16T01:53:56.758Z,98988.91
2022-11-16T01:56:25.913Z,98982.91
2022-11-16T01:58:54.165Z,98984.59
2022-11-16T02:01:22.124Z,98986.41
2022-11-16T02:03:50.144Z,98983.72
2022-11-16T02:06:33.550Z,98989.06
2022-11-16T02:09:33.784Z,98982.75
2022-11-16T02:12:18.304Z,98984.25
2022-11-16T02:15:00.728Z,98987.94
2022-11-16T02:17:38.034Z,98987.06
2022-11-16T02:20:43.268Z,98980.94
2022-11-16T02:24:01.619Z,98984.59
2022-11-16T02:26:59.395Z,98988.91
2022-11-16T02:29:30.520Z,98986.25
2022-11-16T02:32:05.868Z,98988.22
2022-11-16T02:34:39.129Z,98989.06
2022-11-16T02:37:10.634Z,98992.72
2022-11-16T02:39:40.447Z,98982.22
2022-11-16T02:42:13.624Z,98980.41
2022-11-16T02:44:48.481Z,98979.94
2022-11-16T02:47:21.770Z,98981.75
2022-11-16T02:49:55.522Z,98975.75
2022-11-16T02:52:24.742Z,98976.75
2022-11-16T02:54:52.491Z,98971.59
2022-11-16T02:57:33.973Z,98960.41
2022-11-16T03:00:04.032Z,98959.44
2022-11-16T03:02:37.681Z,98955.28
2022-11-16T03:05:09.427Z,98952.59
2022-11-16T03:07:46.422Z,98949.94
2022-11-16T03:10:36.874Z,98949.94
2022-11-16T03:13:06.738Z,98938.44
2022-11-16T03:15:38.472Z,98938.63
2022-11-16T03:18:09.006Z,98944.94
2022-11-16T03:20:39.846Z,98947.72
2022-11-16T03:23:11.919Z,98948.75
2022-11-16T03:25:42.536Z,98958.38
2022-11-16T03:28:15.067Z,98962.88
2022-11-16T03:30:51.917Z,98967.50
2022-11-16T03:33:23.380Z,98964.00
2022-11-16T03:35:57.817Z,98982.50
2022-11-16T03:38:27.698Z,98986.94
2022-11-16T03:40:59.859Z,98991.59
2022-11-16T03:43:28.471Z,98997.72
2022-11-16T03:45:58.566Z,98981.94
2022-11-16T03:48:26.448Z,98973.97
2022-11-16T03:50:54.179Z,98983.59
2022-11-16T03:53:21.901Z,98987.41
2022-11-16T03:55:50.082Z,98982.91
2022-11-16T03:58:18.728Z,98977.94
2022-11-16T04:00:46.845Z,98955.97
2022-11-16T04:03:16.023Z,98988.72
2022-11-16T04:06:01.515Z,98984.38
2022-11-16T04:08:46.626Z,98994.19
2022-11-16T04:11:33.760Z,98993.34
2022-11-16T04:14:31.028Z,99003.16
2022-11-16T04:17:16.705Z,99002.97
2022-11-16T04:20:03.317Z,99003.97
2022-11-16T04:22:52.841Z,99006.66
2022-11-16T04:25:26.586Z,99005.81
2022-11-16T04:28:12.587Z,99004.97
2022-11-16T04:30:58.681Z,99004.81
2022-11-16T04:33:44.230Z,99002.97
2022-11-16T04:36:31.095Z,99011.97
2022-11-16T04:38:58.796Z,99015.16
2022-11-16T04:41:52.641Z,99018.09
2022-11-16T04:44:23.676Z,99014.47
2022-11-16T04:47:08.017Z,99019.94
2022-11-16T04:49:35.731Z,99024.94
2022-11-16T04:52:05.073Z,99019.63
2022-11-16T04:54:32.842Z,99021.59
2022-11-16T04:57:00.611Z,99025.78
2022-11-16T04:59:28.425Z,99018.94
2022-11-16T05:02:11.499Z,99009.31
2022-11-16T05:04:39.677Z,99007.47
2022-11-16T05:07:11.016Z,99012.94
2022-11-16T05:09:41.486Z,99006.78
2022-11-16T05:12:09.695Z,99006.94
2022-11-16T05:14:37.446Z,99005.97
2022-11-16T05:17:05.178Z,99007.78
2022-11-16T05:19:50.588Z,99010.44
2022-11-16T05:22:19.910Z,99002.63
2022-11-16T05:24:47.609Z,99001.78
2022-11-16T05:27:20.390Z,98993.97
2022-11-16T05:29:51.419Z,99003.59
2022-11-16T05:32:20.389Z,99007.78
2022-11-16T05:34:48.095Z,99007.78
2022-11-16T05:37:16.398Z,99018.44
2022-11-16T05:39:45.812Z,99022.06
2022-11-16T05:42:15.852Z,99021.22
2022-11-16T05:44:43.642Z,99024.72
2022-11-16T05:47:11.394Z,99022.88
2022-11-16T05:49:39.044Z,99027.38
2022-11-16T05:52:06.733Z,99030.88
2022-11-16T05:54:34.784Z,99027.38
2022-11-16T05:57:03.921Z,99033.53
2022-11-16T05:59:31.694Z,99023.88
2022-11-16T06:01:59.524Z,99036.19
2022-11-16T06:04:27.472Z,99038.84
2022-11-16T06:06:55.212Z,99038.69
2022-11-16T06:09:23.817Z,99033.38
2022-11-16T06:11:51.591Z,99032.22
2022-11-16T06:14:20.635Z,99032.41
2022-11-16T06:16:48.296Z,99027.91
2022-11-16T06:19:16.007Z,99032.22
2022-11-16T06:21:43.697Z,99040.22
2022-11-16T06:24:11.450Z,99040.22
2022-11-16T06:26:39.122Z,99042.19
2022-11-16T06:29:06.834Z,99039.53
2022-11-16T06:31:35.935Z,99039.53
2022-11-16T06:34:03.754Z,99041.50
2022-11-16T06:36:31.541Z,99046.81
2022-11-16T06:39:00.200Z,99053.00
2022-11-16T06:41:27.940Z,99052.81
2022-11-16T06:43:55.943Z,99060.81
2022-11-16T06:46:24.590Z,99055.78
2022-11-16T06:48:53.623Z,99055.13
2022-11-16T06:51:21.408Z,99068.56
2022-11-16T06:53:49.118Z,99072.19
2022-11-16T06:56:17.369Z,99076.81
2022-11-16T06:58:45.107Z,99071.81
2022-11-16T07:01:15.492Z,99079.09
2022-11-16T07:03:43.180Z,99077.41
2022-11-16T07:06:13.557Z,99082.03
2022-11-16T07:08:41.464Z,99082.22
2022-11-16T07:11:11.111Z,99077.03
2022-11-16T07:13:39.661Z,99074.53
2022-11-16T07:16:09.793Z,99079.00
2022-11-16T07:18:39.258Z,99092.44
2022-11-16T07:21:07.511Z,99091.63
2022-11-16T07:23:37.132Z,99099.72
2022-11-16T07:26:07.051Z,99096.06
2022-11-16T07:28:35.450Z,99104.78
2022-11-16T07:31:04.819Z,99105.28
2022-11-16T07:33:32.709Z,99107.66
2022-11-16T07:36:02.483Z,99108.91
2022-11-16T07:38:30.488Z,99117.56
2022-11-16T07:41:02.363Z,99114.72
2022-11-16T07:43:31.634Z,99127.19
2022-11-16T07:46:28.197Z,99130.84
2022-11-16T07:48:50.935Z,99135.84
2022-11-16T07:51:19.823Z,99131.22
2022-11-16T07:53:49.693Z,99136.25
2022-11-16T07:56:18.745Z,99136.94
2022-11-16T07:58:46.778Z,99146.44
2022-11-16T08:01:16.677Z,99158.59
2022-11-16T08:03:46.269Z,99161.13
2022-11-16T08:06:17.790Z,99163.50
2022-11-16T08:08:45.893Z,99146.53
2022-11-16T08:11:14.269Z,99150.06
2022-11-16T08:13:45.564Z,99160.53
2022-11-16T08:16:15.428Z,99162.50
2022-11-16T08:18:43.631Z,99162.34
2022-11-16T08:21:12.734Z,99171.69
2022-11-16T08:23:41.822Z,99160.91
2022-11-16T08:26:11.271Z,99172.38
2022-11-16T08:28:40.010Z,99174.31
2022-11-16T08:31:11.268Z,99170.34
2022-11-16T08:33:38.933Z,99170.91
2022-11-16T08:36:13.587Z,99162.59
2022-11-16T08:38:41.946Z,99168.47
2022-11-16T08:41:10.841Z,99175.47
2022-11-16T08:43:40.544Z,99170.84
2022-11-16T08:46:10.681Z,99165.81
2022-11-16T08:48:38.942Z,99170.31
2022-11-16T08:51:18.119Z,99174.03
2022-11-16T08:53:48.367Z,99180.91
2022-11-16T08:56:18.873Z,99176.13
2022-11-16T08:58:49.423Z,99175.81
2022-11-16T09:01:22.500Z,99175.75
2022-11-16T09:03:50.689Z,99175.28
2022-11-16T09:06:18.966Z,99172.00
2022-11-16T09:08:47.829Z,99168.44
2022-11-16T09:11:17.712Z,99182.97
2022-11-16T09:13:45.879Z,99182.34
2022-11-16T09:16:15.855Z,99182.56
2022-11-16T09:18:46.743Z,99184.31
2022-11-16T09:21:18.036Z,99192.66
2022-11-16T09:23:45.741Z,99190.38
2022-11-16T09:26:13.826Z,99180.59
2022-11-16T09:28:41.996Z,99184.06
2022-11-16T09:31:10.204Z,99172.28
2022-11-16T09:33:38.519Z,99170.69
2022-11-16T09:36:09.542Z,99178.03
2022-11-16T09:39:14.008Z,99182.06
2022-11-16T09:41:44.782Z,99185.06
2022-11-16T09:44:24.093Z,99190.09
2022-11-16T09:46:56.701Z,99194.94
2022-11-16T09:49:28.729Z,99184.94
2022-11-16T09:52:03.883Z,99192.00
2022-11-16T09:54:35.387Z,99193.38
2022-11-16T09:57:12.258Z,99185.91
2022-11-16T09:59:43.311Z,99188.38
2022-11-16T10:02:22.072Z,99181.53
2022-11-16T10:04:58.125Z,99190.06
2022-11-16T10:07:32.694Z,99183.09
2022-11-16T10:10:00.790Z,99180.44
2022-11-16T10:12:34.411Z,99178.63
2022-11-16T10:15:18.555Z,99167.44
2022-11-16T10:18:18.336Z,99172.63
2022-11-16T10:21:07.949Z,99169.66
2022-11-16T10:23:54.678Z,99162.63
2022-11-16T10:26:28.588Z,99163.94
2022-11-16T10:29:16.050Z,99164.97
2022-11-16T10:32:04.395Z,99162.47
2022-11-16T10:34:46.682Z,99153.50
2022-11-16T10:37:15.152Z,99157.34
2022-11-16T10:39:44.760Z,99152.16
2022-11-16T10:42:17.458Z,99149.31
2022-11-16T10:44:47.888Z,99137.41
2022-11-16T10:47:20.784Z,99138.75
2022-11-16T10:49:54.695Z,99145.91
2022-11-16T10:52:23.549Z,99141.09
2022-11-16T10:54:52.784Z,99141.72
2022-11-16T10:57:25.713Z,99149.75
2022-11-16T10:59:55.660Z,99141.91
2022-11-16T11:02:34.886Z,99138.53
2022-11-16T11:05:06.454Z,99130.19
2022-11-16T11:07:37.604Z,99120.31
2022-11-16T11:10:08.061Z,99123.16
2022-11-16T11:12:41.712Z,99125.34
2022-11-16T11:15:26.270Z,99115.81
2022-11-16T11:18:27.028Z,99118.75
2022-11-16T11:21:08.289Z,99127.09
2022-11-16T11:23:43.541Z,99126.59
2022-11-16T11:26:35.883Z,99121.44
2022-11-16T11:29:16.808Z,99120.66
2022-11-16T11:31:47.309Z,99109.59
2022-11-16T11:34:19.408Z,99111.59
2022-11-16T11:36:51.998Z,99110.63
2022-11-16T11:39:38.468Z,99110.25
2022-11-16T11:42:21.986Z,99109.59
2022-11-16T11:44:54.888Z,99108.94
2022-11-16T11:47:59.013Z,99109.59
2022-11-16T11:50:37.338Z,99097.16
2022-11-16T11:53:08.449Z,99099.47
2022-11-16T11:55:36.202Z,99100.16
2022-11-16T11:58:12.663Z,99088.75
2022-11-16T12:00:50.618Z,99089.75
2022-11-16T12:03:51.915Z,99093.03
2022-11-16T12:06:28.897Z,99087.03
2022-11-16T12:09:17.570Z,99086.78
2022-11-16T12:12:02.945Z,99076.16
2022-11-16T12:14:49.407Z,99065.91
2022-11-16T12:17:25.851Z,99066.94
2022-11-16T12:20:16.266Z,99067.94
2022-11-16T12:23:08.466Z,99069.59
2022-11-16T12:25:45.667Z,99066.69
2022-11-16T12:28:30.766Z,99065.53
2022-11-16T12:31:15.320Z,99059.88
2022-11-16T12:33:49.487Z,99062.94
2022-11-16T12:36:30.317Z,99056.72
2022-11-16T12:39:12.862Z,99050.91
2022-11-16T12:42:09.681Z,99044.69
2022-11-16T12:45:07.421Z,99049.06
2022-11-16T12:47:54.381Z,99038.19
2022-11-16T12:50:38.045Z,99040.97
2022-11-16T12:53:19.749Z,99042.34
2022-11-16T12:55:58.279Z,99030.34
2022-11-16T12:58:47.877Z,99023.59
2022-11-16T13:01:21.964Z,99019.19
2022-11-16T13:03:56.309Z,99014.94
2022-11-16T13:06:30.740Z,99025.72
2022-11-16T13:09:04.696Z,99016.38
2022-11-16T13:11:37.818Z,99015.47
2022-11-16T13:14:11.845Z,99007.34
2022-11-16T13:16:39.885Z,99009.25
2022-11-16T13:19:14.566Z,99011.06
2022-11-16T13:21:50.613Z,99003.88
2022-11-16T13:24:33.393Z,98999.91
2022-11-16T13:27:19.028Z,99002.50
2022-11-16T13:29:54.711Z,98999.00
2022-11-16T13:32:29.460Z,99002.31
2022-11-16T13:34:59.985Z,98999.75
2022-11-16T13:37:47.844Z,98996.09
2022-11-16T13:40:25.164Z,98995.72
2022-11-16T13:43:03.659Z,98994.47
2022-11-16T13:45:35.856Z,98993.19
2022-11-16T13:48:08.179Z,98991.97
2022-11-16T13:50:39.936Z,98991.53
2022-11-16T13:54:10.849Z,98992.44
2022-11-16T13:56:03.550Z,98986.75
2022-11-16T13:58:35.050Z,98983.50
2022-11-16T14:01:05.930Z,98979.25
2022-11-16T14:03:38.615Z,98975.97
2022-11-16T14:06:28.293Z,98975.13
2022-11-16T14:08:57.061Z,98977.00
2022-11-16T14:11:36.351Z,98984.13
2022-11-16T14:14:06.693Z,98976.97
2022-11-16T14:16:55.576Z,98973.63
2022-11-16T14:19:58.161Z,98976.59
2022-11-16T14:22:42.505Z,98969.25
2022-11-16T14:25:22.520Z,98969.06
2022-11-16T14:27:57.836Z,98967.25
2022-11-16T14:30:29.603Z,98966.31
2022-11-16T14:32:58.659Z,98965.75
2022-11-16T14:35:33.789Z,98965.78
2022-11-16T14:38:05.683Z,98964.34
2022-11-16T14:40:37.017Z,98963.56
2022-11-16T14:43:16.466Z,98955.41
2022-11-16T14:45:48.944Z,98967.28
2022-11-16T14:48:20.471Z,98970.00
2022-11-16T14:50:59.965Z,98963.69
2022-11-16T14:53:30.621Z,98964.38
2022-11-16T14:56:07.477Z,98965.06
2022-11-16T14:58:35.836Z,98968.59
2022-11-16T15:01:06.284Z,98960.44
2022-11-16T15:03:39.432Z,98962.13
2022-11-16T15:06:08.842Z,98967.16
2022-11-16T15:08:43.765Z,98960.66
2022-11-16T15:11:22.001Z,98959.19
2022-11-16T15:13:50.286Z,98958.19
2022-11-16T15:16:20.875Z,98946.53
2022-11-16T15:18:59.363Z,98937.38
2022-11-16T15:21:27.672Z,98937.19
2022-11-16T15:26:44.531Z,98929.56
2022-11-16T15:29:16.672Z,98937.38
2022-11-16T15:31:44.608Z,98930.88
2022-11-16T15:34:13.197Z,98934.06
2022-11-16T15:36:42.228Z,98939.09
2022-11-16T15:39:15.507Z,98930.69
2022-11-16T15:41:43.799Z,98932.19
2022-11-16T15:44:16.427Z,98931.69
2022-11-16T15:46:48.128Z,98919.03
2022-11-16T15:49:25.680Z,98916.84
2022-11-16T15:51:53.453Z,98924.50
2022-11-16T15:54:27.021Z,98911.69
2022-11-16T15:56:57.138Z,98907.69
2022-11-16T15:59:29.324Z,98905.34
2022-11-16T16:01:57.561Z,98891.69
2022-11-16T16:04:26.988Z,98897.50
2022-11-16T16:06:57.026Z,98897.00
2022-11-16T16:09:28.382Z,98895.81
2022-11-16T16:11:58.470Z,98888.47
2022-11-16T16:14:29.021Z,98898.78
2022-11-16T16:16:58.955Z,98905.63
2022-11-16T16:19:36.703Z,98902.59
2022-11-16T16:22:06.435Z,98905.56
2022-11-16T16:24:42.059Z,98903.41
2022-11-16T16:27:17.709Z,98898.41
2022-11-16T16:29:46.311Z,98909.38
2022-11-16T16:32:19.221Z,98896.41
2022-11-16T16:34:46.822Z,98897.53
2022-11-16T16:37:16.093Z,98892.56
2022-11-16T16:39:45.243Z,98897.38
2022-11-16T16:42:15.544Z,98892.34
2022-11-16T16:44:44.832Z,98884.03
2022-11-16T16:47:13.532Z,98882.34
2022-11-16T16:49:41.615Z,98891.50
2022-11-16T16:52:11.726Z,98891.50
2022-11-16T16:54:39.546Z,98885.50
2022-11-16T16:57:14.061Z,98881.00
2022-11-16T16:59:45.046Z,98876.69
2022-11-16T17:02:13.779Z,98874.00
2022-11-16T17:04:43.924Z,98865.84
2022-11-16T17:07:11.780Z,98873.81
2022-11-16T17:09:39.641Z,98879.16
2022-11-16T17:12:10.302Z,98868.34
2022-11-16T17:14:38.238Z,98864.88
2022-11-16T17:17:06.116Z,98860.38
2022-11-16T17:19:34.042Z,98858.56
2022-11-16T17:22:01.848Z,98853.22
2022-11-16T17:24:29.566Z,98857.69
2022-11-16T17:26:57.432Z,98855.19
2022-11-16T17:29:26.603Z,98855.03
2022-11-16T17:31:54.770Z,98855.88
2022-11-16T17:34:22.697Z,98848.06
2022-11-16T17:36:50.617Z,98849.88
2022-11-16T17:39:19.305Z,98846.22
2022-11-16T17:41:47.037Z,98835.56
2022-11-16T17:44:18.675Z,98842.72
2022-11-16T17:46:50.739Z,98833.88
2022-11-16T17:49:18.477Z,98834.22
2022-11-16T17:51:46.246Z,98831.88
2022-11-16T17:54:14.010Z,98831.53
2022-11-16T17:56:41.742Z,98831.03
2022-11-16T17:59:09.489Z,98827.00
2022-11-16T18:01:37.317Z,98821.16
2022-11-16T18:04:06.568Z,98825.31
2022-11-16T18:06:35.484Z,98824.63
2022-11-16T18:09:03.471Z,98820.47
2022-11-16T18:11:31.240Z,98816.31
2022-11-16T18:14:00.773Z,98817.44
2022-11-16T18:16:31.005Z,98820.09
2022-11-16T18:19:00.143Z,98812.13
2022-11-16T18:21:29.371Z,98817.28
2022-11-16T18:23:59.349Z,98817.28
2022-11-16T18:26:27.519Z,98812.81
2022-11-16T18:28:55.422Z,98809.97
2022-11-16T18:31:24.830Z,98808.00
2022-11-16T18:33:52.956Z,98807.84
2022-11-16T18:36:21.773Z,98805.03
2022-11-16T18:38:51.807Z,98799.84
2022-11-16T18:41:21.061Z,98797.03
2022-11-16T18:43:50.730Z,98794.22
2022-11-16T18:46:18.909Z,98801.34
2022-11-16T18:48:46.937Z,98794.22
2022-11-16T18:51:16.138Z,98797.03
2022-11-16T18:53:44.133Z,98793.56
2022-11-16T18:56:13.492Z,98791.88
2022-11-16T18:58:50.934Z,98794.53
2022-11-16T19:01:22.037Z,98799.03
2022-11-16T19:03:50.298Z,98795.53
2022-11-16T19:06:18.535Z,98796.53
2022-11-16T19:08:55.009Z,98793.19
2022-11-16T19:11:25.828Z,98778.38
2022-11-16T19:13:55.451Z,98785.50
2022-11-16T19:16:25.053Z,98795.44
2022-11-16T19:18:53.582Z,98783.31
2022-11-16T19:21:22.860Z,98779.16
2022-11-16T19:23:52.447Z,98774.97
2022-11-16T19:26:21.582Z,98781.13
2022-11-16T19:28:52.028Z,98780.13
2022-11-16T19:31:22.031Z,98774.81
2022-11-16T19:33:54.547Z,98780.97
2022-11-16T19:36:22.953Z,98775.81
2022-11-16T19:38:50.946Z,98778.47
2022-11-16T19:41:21.309Z,98786.47
2022-11-16T19:43:52.574Z,98789.78
2022-11-16T19:46:21.640Z,98787.94
2022-11-16T19:48:50.193Z,98778.13
2022-11-16T19:51:19.914Z,98770.81
2022-11-16T19:53:48.385Z,98770.81
2022-11-16T19:56:21.004Z,98756.69
2022-11-16T19:58:50.922Z,98752.03
2022-11-16T20:01:20.570Z,98749.53
2022-11-16T20:03:50.170Z,98754.03
2022-11-16T20:06:20.134Z,98736.41
2022-11-16T20:08:49.790Z,98735.56
2022-11-16T20:11:20.687Z,98733.09
2022-11-16T20:13:50.584Z,98740.22
2022-11-16T20:16:20.188Z,98732.41
2022-11-16T20:18:48.347Z,98738.72
2022-11-16T20:21:20.432Z,98733.56
2022-11-16T20:23:48.384Z,98729.25
2022-11-16T20:26:16.421Z,98737.53
2022-11-16T20:28:44.995Z,98721.22
2022-11-16T20:31:15.670Z,98723.03
2022-11-16T20:33:44.579Z,98726.56
2022-11-16T20:36:12.919Z,98727.38
2022-11-16T20:38:41.199Z,98730.84
2022-11-16T20:41:10.609Z,98728.19
2022-11-16T20:43:40.210Z,98724.72
2022-11-16T20:46:09.309Z,98716.88
2022-11-16T20:48:39.311Z,98715.06
2022-11-16T20:51:08.129Z,98716.06
2022-11-16T20:53:36.889Z,98717.72
2022-11-16T20:56:07.523Z,98716.88
2022-11-16T20:58:36.019Z,98716.06
2022-11-16T21:01:05.121Z,98718.72
2022-11-16T21:03:33.772Z,98702.91
2022-11-16T21:06:03.298Z,98711.72
2022-11-16T21:08:31.081Z,98700.25
2022-11-16T21:10:59.263Z,98696.09
2022-11-16T21:13:44.636Z,98698.59
2022-11-16T21:16:15.431Z,98689.78
2022-11-16T21:18:43.647Z,98685.47
2022-11-16T21:21:14.957Z,98689.78
2022-11-16T21:23:47.307Z,98681.13
2022-11-16T21:26:16.415Z,98674.16
2022-11-16T21:28:45.428Z,98684.94
2022-11-16T21:31:15.186Z,98676.97
2022-11-16T21:33:44.153Z,98676.28
2022-11-16T21:36:15.542Z,98668.47
2022-11-16T21:38:43.865Z,98671.47
2022-11-16T21:41:13.128Z,98670.59
2022-11-16T21:43:41.675Z,98669.13
2022-11-16T21:46:11.851Z,98664.81
2022-11-16T21:48:40.354Z,98658.81
2022-11-16T21:51:10.173Z,98656.16
2022-11-16T21:53:39.868Z,98657.97
2022-11-16T21:56:09.437Z,98656.31
2022-11-16T21:58:37.312Z,98657.28
2022-11-16T22:01:05.282Z,98649.50
2022-11-16T22:03:34.034Z,98648.63
2022-11-16T22:06:21.415Z,98651.28
2022-11-16T22:08:51.212Z,98646.31
2022-11-16T22:11:22.260Z,98649.81
2022-11-16T22:13:50.872Z,98643.66
2022-11-16T22:16:20.273Z,98639.31
2022-11-16T22:18:48.325Z,98645.78
2022-11-16T22:21:16.141Z,98631.69
2022-11-16T22:23:43.928Z,98627.34
2022-11-16T22:26:14.665Z,98625.50
2022-11-16T22:28:42.722Z,98634.34
2022-11-16T22:31:12.724Z,98637.81
2022-11-16T22:33:42.646Z,98642.31
2022-11-16T22:36:11.206Z,98640.47
2022-11-16T22:38:39.398Z,98633.47
2022-11-16T22:41:08.290Z,98627.34
2022-11-16T22:43:38.122Z,98618.53
2022-11-16T22:46:07.027Z,98611.53
2022-11-16T22:48:37.053Z,98617.03
2022-11-16T22:51:07.021Z,98611.53
2022-11-16T22:53:35.514Z,98604.56
2022-11-16T22:56:08.211Z,98597.56
2022-11-16T22:58:38.002Z,98594.09
2022-11-16T23:01:08.083Z,98585.59
2022-11-16T23:03:36.521Z,98587.28
2022-11-16T23:06:05.591Z,98577.81
2022-11-16T23:08:33.629Z,98576.97
2022-11-16T23:11:20.136Z,98580.63
2022-11-16T23:14:07.032Z,98576.28
2022-11-16T23:16:35.603Z,98577.97
2022-11-16T23:19:03.837Z,98575.31
2022-11-16T23:21:49.075Z,98575.16
2022-11-16T23:24:34.440Z,98569.50
2022-11-16T23:27:22.220Z,98569.34
2022-11-16T23:29:51.410Z,98571.50
2022-11-16T23:32:19.133Z,98560.84
2022-11-16T23:34:46.866Z,98551.69
2022-11-16T23:37:14.704Z,98550.88
2022-11-16T23:39:42.537Z,98535.22
2022-11-16T23:42:28.243Z,98532.75
2022-11-16T23:44:57.447Z,98517.94
2022-11-16T23:47:25.313Z,98514.63
2022-11-16T23:49:53.039Z,98502.50
2022-11-16T23:52:20.887Z,98505.97
2022-11-16T23:54:48.598Z,98500.19
2022-11-16T23:57:16.433Z,98498.50
2022-11-16T23:59:44.230Z,98494.88
